Druid Hills, Georgia
Current Conditions -  °F | °C
As of 6:53 PM on Wednesday 26 Nov 2014 (Local Time) from KPDK Reporting Station
Scattered Clouds Scattered Clouds  
Wind Chill:   Ceiling: Unl
Heat Index:   Visibility: 10mi
Dew Point: -4°   Wind: 3mph
Humidity: 41%   Direction: 210°SSW
Pressure: 30.08"   Gusts: NA
Location:  33.7788°N, 84.3361°W
Report Text: KPDK 262353Z 21003KT 10SM SCT110 08/M04 A3008 RMK AO2 SLP191 T00831044 10128 20072 51006
Loading
Personal Weather Stations






























Interactive Weather Map New forecast layout! Learn more

10-Day Weather Forecast

Advertisements
Track Severe Weather on mobile